Peru, IL (61354)

1:55 AM CST on February 12, 2016 (GMT -0600)
Spring Valley | | Change Station
CLOSE
Current Station
Personal Weather Station
Location: Spring Valley, IL
Elevation: 584 ft
Nearby Weather Stations

Elev 584 ft 41.33 °N, 89.22 °W | Updated 4 seconds ago

Mostly Cloudy
Mostly Cloudy
20.7 °F
Feels Like 21 °F
N
0.0
Wind Variable Wind from SSW
Gusts 0.0 mph

Today
High -- | Low -- °F
--% Chance of Precip.
Yesterday
High -- | Low -- °F
Precip. -- in
Pressure 30.22 in
Visibility 10.0 miles
Clouds Mostly Cloudy 6000 ft
Mostly Cloudy 11000 ft
Windchill 21 °F
Dew Point 7 °F
Humidity 54%
Rainfall 0.00 in
Snow Depth Not available.
6:55 AM 5:26 PM
Waxing Crescent, 18% visible
METAR KVYS 120735Z AUTO 00000KT 10SM BKN060 BKN110 M06/M12 A3022 RMK AO2 T10601117
Pressure 30.22 in
Visibility 10.0 miles
Clouds Mostly Cloudy 6000 ft
Mostly Cloudy 11000 ft
Windchill 21 °F
Dew Point 7 °F
Humidity 54%
Rainfall 0.00 in
Snow Depth Not available.
6:55 AM 5:26 PM
Waxing Crescent, 18% visible
METAR KVYS 120735Z AUTO 00000KT 10SM BKN060 BKN110 M06/M12 A3022 RMK AO2 T10601117

10-Day Weather Forecast

Almanac

Astronomy

Feb. 12, 2016 Rise Set
Actual Time
Civil Twilight
Nautical Twilight
Astronomical Twilight
Moon
Length of Visible Light
Length of Day
Tomorrow will be .
, % of the Moon is Illuminated

Today's Extremes

State Highs State Lows

Community

WunderPhotos

Upload Photos

1,892,278 photos uploaded!

WunderBlog® & News

Nearby

Air Quality

  Air Quality AQ Index Pollutant
Not available.

Snow Depth

Station Depth Elevation

Earthquake Activity

City Distance Mag. Time & Date
Minimum magnitude displayed is 2.5.

Coastal Water Temperatures

Place Temperature

Stations

Nearby Weather Stations

Station Location Temp. Windchill Dew Point Humidity Wind Precip. Elev Updated Type
                   

Watches & Warnings

There are currently no watches in effect.